sensor_id;sensor_type;location;lat;lon;timestamp;P1;durP1;ratioP1;P2;durP2;ratioP2
53718;SDS011;39616;48.872;9.390;2022-07-06T00:00:59;5.22;;;1.13;;
53718;SDS011;39616;48.872;9.390;2022-07-06T00:03:30;4.55;;;1.10;;
53718;SDS011;39616;48.872;9.390;2022-07-06T00:06:00;1.25;;;1.10;;
53718;SDS011;39616;48.872;9.390;2022-07-06T00:08:32;1.65;;;1.10;;
53718;SDS011;39616;48.872;9.390;2022-07-06T00:11:02;3.17;;;1.10;;
53718;SDS011;39616;48.872;9.390;2022-07-06T00:13:32;2.67;;;1.10;;
53718;SDS011;39616;48.872;9.390;2022-07-06T00:16:03;2.97;;;1.40;;
53718;SDS011;39616;48.872;9.390;2022-07-06T00:18:33;2.05;;;1.42;;
53718;SDS011;39616;48.872;9.390;2022-07-06T00:21:04;3.03;;;1.27;;
53718;SDS011;39616;48.872;9.390;2022-07-06T00:23:34;3.25;;;1.40;;
53718;SDS011;39616;48.872;9.390;2022-07-06T00:26:04;2.75;;;1.20;;
53718;SDS011;39616;48.872;9.390;2022-07-06T00:28:35;3.58;;;1.13;;
53718;SDS011;39616;48.872;9.390;2022-07-06T00:31:05;2.78;;;1.50;;
53718;SDS011;39616;48.872;9.390;2022-07-06T00:33:36;5.38;;;1.45;;
53718;SDS011;39616;48.872;9.390;2022-07-06T00:36:06;3.13;;;1.20;;
53718;SDS011;39616;48.872;9.390;2022-07-06T00:38:37;2.72;;;1.10;;
53718;SDS011;39616;48.872;9.390;2022-07-06T00:41:07;1.17;;;1.00;;
53718;SDS011;39616;48.872;9.390;2022-07-06T00:43:51;1.45;;;1.27;;
53718;SDS011;39616;48.872;9.390;2022-07-06T00:46:30;3.92;;;1.50;;
53718;SDS011;39616;48.872;9.390;2022-07-06T00:51:34;4.45;;;1.15;;
53718;SDS011;39616;48.872;9.390;2022-07-06T00:54:06;2.78;;;1.20;;
53718;SDS011;39616;48.872;9.390;2022-07-06T00:56:37;1.83;;;1.25;;
53718;SDS011;39616;48.872;9.390;2022-07-06T00:59:07;1.45;;;1.10;;
53718;SDS011;39616;48.872;9.390;2022-07-06T01:01:38;1.83;;;1.33;;
53718;SDS011;39616;48.872;9.390;2022-07-06T01:04:08;2.35;;;1.00;;
53718;SDS011;39616;48.872;9.390;2022-07-06T01:06:38;1.25;;;1.10;;
53718;SDS011;39616;48.872;9.390;2022-07-06T01:09:09;4.35;;;1.50;;
53718;SDS011;39616;48.872;9.390;2022-07-06T01:11:40;6.10;;;1.55;;
53718;SDS011;39616;48.872;9.390;2022-07-06T01:14:11;1.50;;;1.05;;
53718;SDS011;39616;48.872;9.390;2022-07-06T01:16:43;1.42;;;1.30;;
53718;SDS011;39616;48.872;9.390;2022-07-06T01:19:13;2.13;;;1.35;;
53718;SDS011;39616;48.872;9.390;2022-07-06T01:21:44;1.50;;;1.30;;
53718;SDS011;39616;48.872;9.390;2022-07-06T01:24:14;3.08;;;1.50;;
53718;SDS011;39616;48.872;9.390;2022-07-06T01:26:45;1.63;;;1.52;;
53718;SDS011;39616;48.872;9.390;2022-07-06T01:29:15;3.33;;;1.40;;
53718;SDS011;39616;48.872;9.390;2022-07-06T01:31:49;1.92;;;1.40;;
53718;SDS011;39616;48.872;9.390;2022-07-06T01:34:20;1.75;;;1.48;;
53718;SDS011;39616;48.872;9.390;2022-07-06T01:36:51;3.78;;;1.52;;
53718;SDS011;39616;48.872;9.390;2022-07-06T01:39:21;3.97;;;1.67;;
53718;SDS011;39616;48.872;9.390;2022-07-06T01:41:51;2.28;;;1.70;;
53718;SDS011;39616;48.872;9.390;2022-07-06T01:44:22;5.25;;;1.50;;
53718;SDS011;39616;48.872;9.390;2022-07-06T01:46:52;1.48;;;1.38;;
53718;SDS011;39616;48.872;9.390;2022-07-06T01:49:22;5.07;;;1.85;;
53718;SDS011;39616;48.872;9.390;2022-07-06T01:51:53;2.33;;;1.80;;
53718;SDS011;39616;48.872;9.390;2022-07-06T01:54:23;4.28;;;2.17;;
53718;SDS011;39616;48.872;9.390;2022-07-06T01:56:53;2.53;;;1.50;;
53718;SDS011;39616;48.872;9.390;2022-07-06T01:59:24;2.80;;;1.70;;
53718;SDS011;39616;48.872;9.390;2022-07-06T02:01:54;5.20;;;1.92;;
53718;SDS011;39616;48.872;9.390;2022-07-06T02:04:25;1.90;;;1.70;;
53718;SDS011;39616;48.872;9.390;2022-07-06T02:06:55;1.95;;;1.73;;
53718;SDS011;39616;48.872;9.390;2022-07-06T02:09:25;2.05;;;1.77;;
53718;SDS011;39616;48.872;9.390;2022-07-06T02:11:56;1.80;;;1.63;;
53718;SDS011;39616;48.872;9.390;2022-07-06T02:14:26;4.60;;;1.85;;
53718;SDS011;39616;48.872;9.390;2022-07-06T02:16:56;2.35;;;1.90;;
53718;SDS011;39616;48.872;9.390;2022-07-06T02:19:27;5.65;;;1.95;;
53718;SDS011;39616;48.872;9.390;2022-07-06T02:21:57;3.25;;;2.22;;
53718;SDS011;39616;48.872;9.390;2022-07-06T02:24:27;3.40;;;2.00;;
53718;SDS011;39616;48.872;9.390;2022-07-06T02:26:58;4.95;;;2.08;;
53718;SDS011;39616;48.872;9.390;2022-07-06T02:29:28;3.42;;;1.75;;
53718;SDS011;39616;48.872;9.390;2022-07-06T02:31:58;6.75;;;2.08;;
53718;SDS011;39616;48.872;9.390;2022-07-06T02:34:29;1.77;;;1.60;;
53718;SDS011;39616;48.872;9.390;2022-07-06T02:36:59;3.00;;;1.67;;
53718;SDS011;39616;48.872;9.390;2022-07-06T02:39:30;4.35;;;1.80;;
53718;SDS011;39616;48.872;9.390;2022-07-06T02:42:00;1.90;;;1.77;;
53718;SDS011;39616;48.872;9.390;2022-07-06T02:44:31;1.83;;;1.73;;
53718;SDS011;39616;48.872;9.390;2022-07-06T02:47:01;1.65;;;1.55;;
53718;SDS011;39616;48.872;9.390;2022-07-06T02:49:32;2.75;;;1.90;;
53718;SDS011;39616;48.872;9.390;2022-07-06T02:52:02;1.88;;;1.60;;
53718;SDS011;39616;48.872;9.390;2022-07-06T02:54:33;2.05;;;1.83;;
53718;SDS011;39616;48.872;9.390;2022-07-06T02:57:03;4.57;;;2.15;;
53718;SDS011;39616;48.872;9.390;2022-07-06T02:59:34;4.15;;;2.10;;
53718;SDS011;39616;48.872;9.390;2022-07-06T03:02:04;8.45;;;1.80;;
53718;SDS011;39616;48.872;9.390;2022-07-06T03:04:35;2.30;;;2.03;;
53718;SDS011;39616;48.872;9.390;2022-07-06T03:07:05;2.97;;;1.80;;
53718;SDS011;39616;48.872;9.390;2022-07-06T03:09:35;3.05;;;2.35;;
53718;SDS011;39616;48.872;9.390;2022-07-06T03:12:06;3.95;;;2.00;;
53718;SDS011;39616;48.872;9.390;2022-07-06T03:14:37;3.20;;;2.22;;
53718;SDS011;39616;48.872;9.390;2022-07-06T03:17:07;4.03;;;1.98;;
53718;SDS011;39616;48.872;9.390;2022-07-06T03:19:38;2.25;;;1.70;;
53718;SDS011;39616;48.872;9.390;2022-07-06T03:22:08;2.78;;;2.25;;
53718;SDS011;39616;48.872;9.390;2022-07-06T03:24:39;3.22;;;1.80;;
53718;SDS011;39616;48.872;9.390;2022-07-06T03:27:09;2.05;;;1.77;;
53718;SDS011;39616;48.872;9.390;2022-07-06T03:29:40;2.25;;;1.70;;
53718;SDS011;39616;48.872;9.390;2022-07-06T03:32:10;5.38;;;1.90;;
53718;SDS011;39616;48.872;9.390;2022-07-06T03:34:41;4.47;;;2.10;;
53718;SDS011;39616;48.872;9.390;2022-07-06T03:37:11;5.00;;;2.13;;
53718;SDS011;39616;48.872;9.390;2022-07-06T03:39:41;5.85;;;2.45;;
53718;SDS011;39616;48.872;9.390;2022-07-06T03:42:12;1.90;;;1.80;;
53718;SDS011;39616;48.872;9.390;2022-07-06T03:44:42;4.78;;;2.10;;
53718;SDS011;39616;48.872;9.390;2022-07-06T03:47:12;2.83;;;2.05;;
53718;SDS011;39616;48.872;9.390;2022-07-06T03:49:43;3.28;;;2.22;;
53718;SDS011;39616;48.872;9.390;2022-07-06T03:52:13;3.58;;;2.42;;
53718;SDS011;39616;48.872;9.390;2022-07-06T03:54:43;2.38;;;2.10;;
53718;SDS011;39616;48.872;9.390;2022-07-06T03:57:14;1.60;;;1.50;;
53718;SDS011;39616;48.872;9.390;2022-07-06T03:59:44;3.45;;;2.03;;
53718;SDS011;39616;48.872;9.390;2022-07-06T04:02:14;5.45;;;2.33;;
53718;SDS011;39616;48.872;9.390;2022-07-06T04:04:45;2.55;;;1.83;;
53718;SDS011;39616;48.872;9.390;2022-07-06T04:07:15;2.20;;;1.70;;
53718;SDS011;39616;48.872;9.390;2022-07-06T04:09:45;3.60;;;2.15;;
53718;SDS011;39616;48.872;9.390;2022-07-06T04:12:16;4.32;;;1.70;;
53718;SDS011;39616;48.872;9.390;2022-07-06T04:14:49;4.07;;;2.00;;
53718;SDS011;39616;48.872;9.390;2022-07-06T04:20:46;7.88;;;2.25;;
53718;SDS011;39616;48.872;9.390;2022-07-06T04:23:17;4.60;;;1.58;;
53718;SDS011;39616;48.872;9.390;2022-07-06T04:25:47;3.72;;;1.80;;
53718;SDS011;39616;48.872;9.390;2022-07-06T04:28:17;1.67;;;1.58;;
53718;SDS011;39616;48.872;9.390;2022-07-06T04:30:48;4.25;;;2.22;;
53718;SDS011;39616;48.872;9.390;2022-07-06T04:33:18;2.42;;;1.80;;
53718;SDS011;39616;48.872;9.390;2022-07-06T04:35:48;5.15;;;1.90;;
53718;SDS011;39616;48.872;9.390;2022-07-06T04:38:19;2.33;;;1.90;;
53718;SDS011;39616;48.872;9.390;2022-07-06T04:40:49;5.15;;;1.80;;
53718;SDS011;39616;48.872;9.390;2022-07-06T04:43:19;5.90;;;1.88;;
53718;SDS011;39616;48.872;9.390;2022-07-06T04:45:50;3.58;;;1.92;;
53718;SDS011;39616;48.872;9.390;2022-07-06T04:48:20;6.35;;;1.80;;
53718;SDS011;39616;48.872;9.390;2022-07-06T04:50:50;1.92;;;1.67;;
53718;SDS011;39616;48.872;9.390;2022-07-06T04:53:20;4.88;;;2.15;;
53718;SDS011;39616;48.872;9.390;2022-07-06T04:55:51;7.60;;;2.17;;
53718;SDS011;39616;48.872;9.390;2022-07-06T04:58:21;3.47;;;1.70;;
53718;SDS011;39616;48.872;9.390;2022-07-06T05:00:51;2.70;;;1.83;;
53718;SDS011;39616;48.872;9.390;2022-07-06T05:03:22;4.45;;;1.90;;
53718;SDS011;39616;48.872;9.390;2022-07-06T05:05:53;5.28;;;2.45;;
53718;SDS011;39616;48.872;9.390;2022-07-06T05:08:23;4.68;;;2.33;;
53718;SDS011;39616;48.872;9.390;2022-07-06T05:10:53;4.47;;;1.70;;
53718;SDS011;39616;48.872;9.390;2022-07-06T05:13:24;3.33;;;1.80;;
53718;SDS011;39616;48.872;9.390;2022-07-06T05:15:54;4.80;;;2.35;;
53718;SDS011;39616;48.872;9.390;2022-07-06T05:18:24;9.27;;;1.80;;
53718;SDS011;39616;48.872;9.390;2022-07-06T05:20:55;2.40;;;2.03;;
53718;SDS011;39616;48.872;9.390;2022-07-06T05:23:25;1.98;;;1.77;;
53718;SDS011;39616;48.872;9.390;2022-07-06T05:25:56;3.83;;;1.90;;
53718;SDS011;39616;48.872;9.390;2022-07-06T05:28:27;4.47;;;1.58;;
53718;SDS011;39616;48.872;9.390;2022-07-06T05:30:57;5.10;;;2.10;;
53718;SDS011;39616;48.872;9.390;2022-07-06T05:33:28;4.15;;;1.85;;
53718;SDS011;39616;48.872;9.390;2022-07-06T05:35:58;6.35;;;1.80;;
53718;SDS011;39616;48.872;9.390;2022-07-06T05:38:28;3.50;;;2.45;;
53718;SDS011;39616;48.872;9.390;2022-07-06T05:40:58;3.67;;;2.08;;
53718;SDS011;39616;48.872;9.390;2022-07-06T05:43:29;4.38;;;2.05;;
53718;SDS011;39616;48.872;9.390;2022-07-06T05:45:59;7.35;;;2.47;;
53718;SDS011;39616;48.872;9.390;2022-07-06T05:48:29;4.90;;;2.33;;
53718;SDS011;39616;48.872;9.390;2022-07-06T05:51:18;2.97;;;2.33;;
53718;SDS011;39616;48.872;9.390;2022-07-06T05:53:49;5.80;;;2.17;;
53718;SDS011;39616;48.872;9.390;2022-07-06T05:56:19;2.40;;;2.20;;
53718;SDS011;39616;48.872;9.390;2022-07-06T05:58:49;4.97;;;2.45;;
53718;SDS011;39616;48.872;9.390;2022-07-06T06:01:20;2.63;;;2.17;;
53718;SDS011;39616;48.872;9.390;2022-07-06T06:03:50;2.75;;;2.08;;
53718;SDS011;39616;48.872;9.390;2022-07-06T06:06:22;4.25;;;1.92;;
53718;SDS011;39616;48.872;9.390;2022-07-06T06:08:53;5.10;;;2.20;;
53718;SDS011;39616;48.872;9.390;2022-07-06T06:11:23;3.60;;;2.65;;
53718;SDS011;39616;48.872;9.390;2022-07-06T06:13:53;4.40;;;2.25;;
53718;SDS011;39616;48.872;9.390;2022-07-06T06:16:24;10.73;;;2.38;;
53718;SDS011;39616;48.872;9.390;2022-07-06T06:18:54;4.28;;;1.98;;
53718;SDS011;39616;48.872;9.390;2022-07-06T06:21:24;2.88;;;2.30;;
53718;SDS011;39616;48.872;9.390;2022-07-06T06:23:54;4.55;;;2.22;;
53718;SDS011;39616;48.872;9.390;2022-07-06T06:26:25;4.22;;;1.80;;
53718;SDS011;39616;48.872;9.390;2022-07-06T06:28:55;4.28;;;1.88;;
53718;SDS011;39616;48.872;9.390;2022-07-06T06:31:25;3.88;;;2.03;;
53718;SDS011;39616;48.872;9.390;2022-07-06T06:33:56;4.95;;;1.90;;
53718;SDS011;39616;48.872;9.390;2022-07-06T06:36:26;3.65;;;2.53;;
53718;SDS011;39616;48.872;9.390;2022-07-06T06:38:56;5.05;;;1.90;;
53718;SDS011;39616;48.872;9.390;2022-07-06T06:41:27;3.08;;;2.00;;
53718;SDS011;39616;48.872;9.390;2022-07-06T06:43:57;4.97;;;1.98;;
53718;SDS011;39616;48.872;9.390;2022-07-06T06:46:27;3.72;;;1.50;;
53718;SDS011;39616;48.872;9.390;2022-07-06T06:48:58;4.82;;;1.98;;
53718;SDS011;39616;48.872;9.390;2022-07-06T06:51:28;3.85;;;2.20;;
53718;SDS011;39616;48.872;9.390;2022-07-06T06:53:58;1.80;;;1.50;;
53718;SDS011;39616;48.872;9.390;2022-07-06T06:56:29;2.85;;;2.13;;
53718;SDS011;39616;48.872;9.390;2022-07-06T06:58:59;5.07;;;1.65;;
53718;SDS011;39616;48.872;9.390;2022-07-06T07:01:31;13.52;;;2.10;;
53718;SDS011;39616;48.872;9.390;2022-07-06T07:04:02;8.40;;;1.88;;
53718;SDS011;39616;48.872;9.390;2022-07-06T07:06:33;2.85;;;1.30;;
53718;SDS011;39616;48.872;9.390;2022-07-06T07:09:03;2.50;;;1.85;;
53718;SDS011;39616;48.872;9.390;2022-07-06T07:11:34;4.85;;;1.85;;
53718;SDS011;39616;48.872;9.390;2022-07-06T07:14:05;4.30;;;1.70;;
53718;SDS011;39616;48.872;9.390;2022-07-06T07:16:35;5.18;;;1.50;;
53718;SDS011;39616;48.872;9.390;2022-07-06T07:19:06;3.67;;;1.77;;
53718;SDS011;39616;48.872;9.390;2022-07-06T07:21:36;3.88;;;1.52;;
53718;SDS011;39616;48.872;9.390;2022-07-06T07:24:06;1.98;;;1.38;;
53718;SDS011;39616;48.872;9.390;2022-07-06T07:26:37;1.80;;;1.23;;
53718;SDS011;39616;48.872;9.390;2022-07-06T07:29:08;3.65;;;1.45;;
53718;SDS011;39616;48.872;9.390;2022-07-06T07:31:38;2.80;;;1.60;;
53718;SDS011;39616;48.872;9.390;2022-07-06T07:34:08;1.95;;;1.13;;
53718;SDS011;39616;48.872;9.390;2022-07-06T07:36:39;2.65;;;1.50;;
53718;SDS011;39616;48.872;9.390;2022-07-06T07:39:09;2.75;;;1.40;;
53718;SDS011;39616;48.872;9.390;2022-07-06T07:41:39;6.72;;;1.58;;
53718;SDS011;39616;48.872;9.390;2022-07-06T07:44:09;5.85;;;1.48;;
53718;SDS011;39616;48.872;9.390;2022-07-06T07:46:40;3.60;;;1.20;;
53718;SDS011;39616;48.872;9.390;2022-07-06T07:49:10;3.72;;;1.77;;
53718;SDS011;39616;48.872;9.390;2022-07-06T07:51:40;2.78;;;1.48;;
53718;SDS011;39616;48.872;9.390;2022-07-06T07:54:11;4.18;;;1.23;;
53718;SDS011;39616;48.872;9.390;2022-07-06T07:56:42;2.72;;;1.70;;
53718;SDS011;39616;48.872;9.390;2022-07-06T07:59:13;1.20;;;1.10;;
53718;SDS011;39616;48.872;9.390;2022-07-06T08:01:44;1.63;;;1.20;;
53718;SDS011;39616;48.872;9.390;2022-07-06T08:04:14;5.18;;;1.30;;
53718;SDS011;39616;48.872;9.390;2022-07-06T08:06:44;5.00;;;1.67;;
53718;SDS011;39616;48.872;9.390;2022-07-06T08:09:15;3.38;;;1.17;;
53718;SDS011;39616;48.872;9.390;2022-07-06T08:11:46;2.90;;;1.20;;
53718;SDS011;39616;48.872;9.390;2022-07-06T08:14:17;5.28;;;1.23;;
53718;SDS011;39616;48.872;9.390;2022-07-06T08:16:47;8.57;;;1.70;;
53718;SDS011;39616;48.872;9.390;2022-07-06T08:19:18;5.20;;;1.20;;
53718;SDS011;39616;48.872;9.390;2022-07-06T08:21:48;5.00;;;1.70;;
53718;SDS011;39616;48.872;9.390;2022-07-06T08:24:19;7.05;;;1.30;;
53718;SDS011;39616;48.872;9.390;2022-07-06T08:26:49;5.13;;;1.48;;
53718;SDS011;39616;48.872;9.390;2022-07-06T08:29:20;3.35;;;1.90;;
53718;SDS011;39616;48.872;9.390;2022-07-06T08:31:50;4.00;;;1.50;;
53718;SDS011;39616;48.872;9.390;2022-07-06T08:34:20;4.43;;;1.05;;
53718;SDS011;39616;48.872;9.390;2022-07-06T08:36:51;5.20;;;1.60;;
53718;SDS011;39616;48.872;9.390;2022-07-06T08:39:22;4.97;;;1.38;;
53718;SDS011;39616;48.872;9.390;2022-07-06T08:41:52;3.65;;;1.63;;
53718;SDS011;39616;48.872;9.390;2022-07-06T08:44:25;7.07;;;1.23;;
53718;SDS011;39616;48.872;9.390;2022-07-06T08:46:57;2.88;;;1.40;;
53718;SDS011;39616;48.872;9.390;2022-07-06T08:49:28;3.63;;;1.42;;
53718;SDS011;39616;48.872;9.390;2022-07-06T08:52:02;4.45;;;1.40;;
53718;SDS011;39616;48.872;9.390;2022-07-06T08:54:34;3.10;;;1.10;;
53718;SDS011;39616;48.872;9.390;2022-07-06T08:57:05;8.07;;;1.70;;
53718;SDS011;39616;48.872;9.390;2022-07-06T08:59:37;3.85;;;1.52;;
53718;SDS011;39616;48.872;9.390;2022-07-06T09:02:12;3.75;;;1.55;;
53718;SDS011;39616;48.872;9.390;2022-07-06T09:04:43;1.70;;;1.50;;
53718;SDS011;39616;48.872;9.390;2022-07-06T09:07:15;2.25;;;1.75;;
53718;SDS011;39616;48.872;9.390;2022-07-06T09:09:47;3.22;;;1.38;;
53718;SDS011;39616;48.872;9.390;2022-07-06T09:12:19;4.20;;;1.35;;
53718;SDS011;39616;48.872;9.390;2022-07-06T09:14:49;2.58;;;1.30;;
53718;SDS011;39616;48.872;9.390;2022-07-06T09:17:19;2.20;;;1.45;;
53718;SDS011;39616;48.872;9.390;2022-07-06T09:19:50;5.05;;;1.50;;
53718;SDS011;39616;48.872;9.390;2022-07-06T09:22:30;3.20;;;1.77;;
53718;SDS011;39616;48.872;9.390;2022-07-06T09:25:05;3.35;;;1.70;;
53718;SDS011;39616;48.872;9.390;2022-07-06T09:27:43;3.55;;;1.30;;
53718;SDS011;39616;48.872;9.390;2022-07-06T09:30:20;3.20;;;1.30;;
53718;SDS011;39616;48.872;9.390;2022-07-06T09:32:53;4.60;;;1.40;;
53718;SDS011;39616;48.872;9.390;2022-07-06T09:35:25;3.92;;;1.42;;
53718;SDS011;39616;48.872;9.390;2022-07-06T09:38:02;3.20;;;1.63;;
53718;SDS011;39616;48.872;9.390;2022-07-06T09:40:41;4.22;;;1.92;;
53718;SDS011;39616;48.872;9.390;2022-07-06T09:43:19;3.90;;;1.40;;
53718;SDS011;39616;48.872;9.390;2022-07-06T09:45:52;3.92;;;1.55;;
53718;SDS011;39616;48.872;9.390;2022-07-06T09:48:24;3.28;;;1.50;;
53718;SDS011;39616;48.872;9.390;2022-07-06T09:50:59;2.88;;;1.60;;
53718;SDS011;39616;48.872;9.390;2022-07-06T09:53:34;5.15;;;1.80;;
53718;SDS011;39616;48.872;9.390;2022-07-06T09:56:05;3.50;;;1.50;;
53718;SDS011;39616;48.872;9.390;2022-07-06T09:58:37;3.83;;;1.70;;
53718;SDS011;39616;48.872;9.390;2022-07-06T10:01:08;4.78;;;1.40;;
53718;SDS011;39616;48.872;9.390;2022-07-06T10:03:39;3.58;;;1.67;;
53718;SDS011;39616;48.872;9.390;2022-07-06T10:06:10;6.53;;;1.40;;
53718;SDS011;39616;48.872;9.390;2022-07-06T10:08:41;5.65;;;1.27;;
53718;SDS011;39616;48.872;9.390;2022-07-06T10:11:12;2.75;;;1.17;;
53718;SDS011;39616;48.872;9.390;2022-07-06T10:13:44;3.42;;;1.33;;
53718;SDS011;39616;48.872;9.390;2022-07-06T10:16:18;3.75;;;1.60;;
53718;SDS011;39616;48.872;9.390;2022-07-06T10:18:50;4.82;;;1.67;;
53718;SDS011;39616;48.872;9.390;2022-07-06T10:21:24;2.65;;;1.17;;
53718;SDS011;39616;48.872;9.390;2022-07-06T10:23:55;2.55;;;1.63;;
53718;SDS011;39616;48.872;9.390;2022-07-06T10:26:26;3.85;;;1.65;;
53718;SDS011;39616;48.872;9.390;2022-07-06T10:28:58;3.28;;;1.55;;
53718;SDS011;39616;48.872;9.390;2022-07-06T10:31:28;4.40;;;1.10;;
53718;SDS011;39616;48.872;9.390;2022-07-06T10:34:00;2.15;;;1.20;;
53718;SDS011;39616;48.872;9.390;2022-07-06T10:36:36;5.18;;;1.52;;
53718;SDS011;39616;48.872;9.390;2022-07-06T10:39:09;6.05;;;1.20;;
53718;SDS011;39616;48.872;9.390;2022-07-06T10:41:58;2.92;;;1.27;;
53718;SDS011;39616;48.872;9.390;2022-07-06T10:44:29;2.15;;;1.35;;
53718;SDS011;39616;48.872;9.390;2022-07-06T10:46:59;4.45;;;1.52;;
53718;SDS011;39616;48.872;9.390;2022-07-06T10:49:29;3.67;;;1.20;;
53718;SDS011;39616;48.872;9.390;2022-07-06T10:52:00;3.38;;;1.50;;
53718;SDS011;39616;48.872;9.390;2022-07-06T10:54:31;4.05;;;1.30;;
53718;SDS011;39616;48.872;9.390;2022-07-06T10:57:09;3.85;;;1.17;;
53718;SDS011;39616;48.872;9.390;2022-07-06T11:02:37;3.13;;;1.40;;
53718;SDS011;39616;48.872;9.390;2022-07-06T11:05:11;4.40;;;1.40;;
53718;SDS011;39616;48.872;9.390;2022-07-06T11:08:02;3.70;;;0.95;;
53718;SDS011;39616;48.872;9.390;2022-07-06T11:10:45;1.50;;;1.10;;
53718;SDS011;39616;48.872;9.390;2022-07-06T11:13:27;6.40;;;1.30;;
53718;SDS011;39616;48.872;9.390;2022-07-06T11:16:01;1.58;;;1.10;;
53718;SDS011;39616;48.872;9.390;2022-07-06T11:18:41;2.60;;;1.17;;
53718;SDS011;39616;48.872;9.390;2022-07-06T11:21:20;1.85;;;1.20;;
53718;SDS011;39616;48.872;9.390;2022-07-06T11:23:52;2.25;;;1.10;;
53718;SDS011;39616;48.872;9.390;2022-07-06T11:26:22;2.17;;;1.40;;
53718;SDS011;39616;48.872;9.390;2022-07-06T11:28:53;3.97;;;1.58;;
53718;SDS011;39616;48.872;9.390;2022-07-06T11:31:24;3.13;;;1.65;;
53718;SDS011;39616;48.872;9.390;2022-07-06T11:33:55;3.97;;;1.10;;
53718;SDS011;39616;48.872;9.390;2022-07-06T11:36:25;5.47;;;1.58;;
53718;SDS011;39616;48.872;9.390;2022-07-06T11:38:55;2.97;;;1.40;;
53718;SDS011;39616;48.872;9.390;2022-07-06T11:41:26;4.38;;;1.17;;
53718;SDS011;39616;48.872;9.390;2022-07-06T11:43:57;3.20;;;1.08;;
53718;SDS011;39616;48.872;9.390;2022-07-06T11:46:28;3.42;;;1.00;;
53718;SDS011;39616;48.872;9.390;2022-07-06T11:49:06;3.78;;;1.35;;
53718;SDS011;39616;48.872;9.390;2022-07-06T11:51:38;1.60;;;1.08;;
53718;SDS011;39616;48.872;9.390;2022-07-06T11:54:11;4.85;;;1.00;;
53718;SDS011;39616;48.872;9.390;2022-07-06T11:56:56;4.40;;;1.33;;
53718;SDS011;39616;48.872;9.390;2022-07-06T11:59:31;6.07;;;1.35;;
53718;SDS011;39616;48.872;9.390;2022-07-06T12:02:04;2.50;;;1.20;;
53718;SDS011;39616;48.872;9.390;2022-07-06T12:04:35;4.65;;;1.10;;
53718;SDS011;39616;48.872;9.390;2022-07-06T12:07:10;7.18;;;1.30;;
53718;SDS011;39616;48.872;9.390;2022-07-06T12:09:44;3.28;;;1.10;;
53718;SDS011;39616;48.872;9.390;2022-07-06T12:12:16;5.95;;;1.55;;
53718;SDS011;39616;48.872;9.390;2022-07-06T12:14:47;4.80;;;1.20;;
53718;SDS011;39616;48.872;9.390;2022-07-06T12:17:17;7.80;;;1.08;;
53718;SDS011;39616;48.872;9.390;2022-07-06T12:19:52;3.30;;;1.15;;
53718;SDS011;39616;48.872;9.390;2022-07-06T12:24:56;4.80;;;1.48;;
53718;SDS011;39616;48.872;9.390;2022-07-06T12:27:27;6.07;;;1.88;;
53718;SDS011;39616;48.872;9.390;2022-07-06T12:30:04;7.72;;;1.27;;
53718;SDS011;39616;48.872;9.390;2022-07-06T12:32:39;1.95;;;1.20;;
53718;SDS011;39616;48.872;9.390;2022-07-06T12:35:10;3.08;;;1.13;;
53718;SDS011;39616;48.872;9.390;2022-07-06T12:37:54;2.65;;;1.30;;
53718;SDS011;39616;48.872;9.390;2022-07-06T12:40:26;8.65;;;1.40;;
53718;SDS011;39616;48.872;9.390;2022-07-06T12:43:00;5.07;;;1.50;;
53718;SDS011;39616;48.872;9.390;2022-07-06T12:45:30;3.67;;;1.00;;
53718;SDS011;39616;48.872;9.390;2022-07-06T12:50:37;3.55;;;1.30;;
53718;SDS011;39616;48.872;9.390;2022-07-06T12:53:23;3.92;;;1.30;;
53718;SDS011;39616;48.872;9.390;2022-07-06T12:56:11;2.30;;;1.30;;
53718;SDS011;39616;48.872;9.390;2022-07-06T12:58:57;6.32;;;1.92;;
53718;SDS011;39616;48.872;9.390;2022-07-06T13:01:28;9.90;;;1.40;;
53718;SDS011;39616;48.872;9.390;2022-07-06T13:03:59;8.27;;;1.30;;
53718;SDS011;39616;48.872;9.390;2022-07-06T13:06:30;4.35;;;1.27;;
53718;SDS011;39616;48.872;9.390;2022-07-06T13:09:02;6.80;;;1.60;;
53718;SDS011;39616;48.872;9.390;2022-07-06T13:11:32;7.57;;;1.52;;
53718;SDS011;39616;48.872;9.390;2022-07-06T13:14:03;5.40;;;1.42;;
53718;SDS011;39616;48.872;9.390;2022-07-06T13:16:34;6.47;;;1.70;;
53718;SDS011;39616;48.872;9.390;2022-07-06T13:19:05;4.25;;;1.65;;
53718;SDS011;39616;48.872;9.390;2022-07-06T13:21:35;11.13;;;1.30;;
53718;SDS011;39616;48.872;9.390;2022-07-06T13:24:05;4.88;;;1.10;;
53718;SDS011;39616;48.872;9.390;2022-07-06T13:26:36;3.50;;;1.00;;
53718;SDS011;39616;48.872;9.390;2022-07-06T13:29:07;2.75;;;1.10;;
53718;SDS011;39616;48.872;9.390;2022-07-06T13:31:37;1.42;;;1.08;;
53718;SDS011;39616;48.872;9.390;2022-07-06T13:34:09;2.13;;;1.20;;
53718;SDS011;39616;48.872;9.390;2022-07-06T13:36:39;6.50;;;1.00;;
53718;SDS011;39616;48.872;9.390;2022-07-06T13:39:10;2.70;;;1.10;;
53718;SDS011;39616;48.872;9.390;2022-07-06T13:41:40;2.42;;;1.00;;
53718;SDS011;39616;48.872;9.390;2022-07-06T13:44:11;9.05;;;1.60;;
53718;SDS011;39616;48.872;9.390;2022-07-06T13:46:41;8.02;;;1.00;;
53718;SDS011;39616;48.872;9.390;2022-07-06T13:49:12;5.82;;;1.00;;
53718;SDS011;39616;48.872;9.390;2022-07-06T13:51:43;10.05;;;1.30;;
53718;SDS011;39616;48.872;9.390;2022-07-06T13:54:13;3.72;;;0.90;;
53718;SDS011;39616;48.872;9.390;2022-07-06T13:56:44;7.35;;;1.10;;
53718;SDS011;39616;48.872;9.390;2022-07-06T13:59:14;6.38;;;0.95;;
53718;SDS011;39616;48.872;9.390;2022-07-06T14:01:44;1.45;;;0.90;;
53718;SDS011;39616;48.872;9.390;2022-07-06T14:04:15;4.18;;;1.20;;
53718;SDS011;39616;48.872;9.390;2022-07-06T14:06:45;1.92;;;1.02;;
53718;SDS011;39616;48.872;9.390;2022-07-06T14:09:15;2.75;;;1.20;;
53718;SDS011;39616;48.872;9.390;2022-07-06T14:11:46;2.00;;;0.90;;
53718;SDS011;39616;48.872;9.390;2022-07-06T14:14:16;6.78;;;1.10;;
53718;SDS011;39616;48.872;9.390;2022-07-06T14:16:46;3.13;;;1.10;;
53718;SDS011;39616;48.872;9.390;2022-07-06T14:19:17;4.40;;;1.40;;
53718;SDS011;39616;48.872;9.390;2022-07-06T14:21:50;1.52;;;1.08;;
53718;SDS011;39616;48.872;9.390;2022-07-06T14:24:20;2.22;;;1.10;;
53718;SDS011;39616;48.872;9.390;2022-07-06T14:26:51;5.63;;;1.15;;
53718;SDS011;39616;48.872;9.390;2022-07-06T14:29:21;3.35;;;1.00;;
53718;SDS011;39616;48.872;9.390;2022-07-06T14:31:51;2.20;;;1.05;;
53718;SDS011;39616;48.872;9.390;2022-07-06T14:34:22;3.85;;;0.98;;
53718;SDS011;39616;48.872;9.390;2022-07-06T14:36:52;9.48;;;1.20;;
53718;SDS011;39616;48.872;9.390;2022-07-06T14:39:22;8.63;;;1.30;;
53718;SDS011;39616;48.872;9.390;2022-07-06T14:41:53;1.42;;;0.90;;
53718;SDS011;39616;48.872;9.390;2022-07-06T14:44:23;3.95;;;1.25;;
53718;SDS011;39616;48.872;9.390;2022-07-06T14:46:54;1.48;;;1.05;;
53718;SDS011;39616;48.872;9.390;2022-07-06T14:49:24;1.17;;;0.90;;
53718;SDS011;39616;48.872;9.390;2022-07-06T14:51:55;3.30;;;0.98;;
53718;SDS011;39616;48.872;9.390;2022-07-06T14:54:26;1.95;;;0.80;;
53718;SDS011;39616;48.872;9.390;2022-07-06T14:56:57;4.05;;;0.98;;
53718;SDS011;39616;48.872;9.390;2022-07-06T14:59:27;6.38;;;0.75;;
53718;SDS011;39616;48.872;9.390;2022-07-06T15:01:57;2.95;;;0.95;;
53718;SDS011;39616;48.872;9.390;2022-07-06T15:04:28;4.32;;;0.80;;
53718;SDS011;39616;48.872;9.390;2022-07-06T15:06:58;1.98;;;0.70;;
53718;SDS011;39616;48.872;9.390;2022-07-06T15:09:29;3.75;;;0.90;;
53718;SDS011;39616;48.872;9.390;2022-07-06T15:12:00;2.13;;;0.80;;
53718;SDS011;39616;48.872;9.390;2022-07-06T15:14:32;1.55;;;0.80;;
53718;SDS011;39616;48.872;9.390;2022-07-06T15:17:03;3.35;;;0.80;;
53718;SDS011;39616;48.872;9.390;2022-07-06T15:19:33;2.45;;;0.70;;
53718;SDS011;39616;48.872;9.390;2022-07-06T15:22:04;2.13;;;0.70;;
53718;SDS011;39616;48.872;9.390;2022-07-06T15:24:34;0.98;;;0.70;;
53718;SDS011;39616;48.872;9.390;2022-07-06T15:27:05;2.38;;;0.80;;